createdAt,value
2022-12-22T00:00:38.325Z,97524.78
2022-12-22T00:03:29.739Z,97517.47
2022-12-22T00:06:15.815Z,97505.69
2022-12-22T00:09:05.430Z,97503.16
2022-12-22T00:11:52.146Z,97502.28
2022-12-22T00:14:38.124Z,97503.84
2022-12-22T00:17:44.664Z,97500.06
2022-12-22T00:20:31.646Z,97502.19
2022-12-22T00:23:17.917Z,97497.88
2022-12-22T00:26:04.112Z,97505.03
2022-12-22T00:28:50.000Z,97510.13
2022-12-22T00:31:35.853Z,97508.41
2022-12-22T00:34:25.657Z,97511.94
2022-12-22T00:37:13.210Z,97512.50
2022-12-22T00:39:58.911Z,97503.25
2022-12-22T00:42:45.326Z,97497.22
2022-12-22T00:45:31.409Z,97488.72
2022-12-22T00:48:18.193Z,97490.03
2022-12-22T00:51:05.590Z,97482.63
2022-12-22T00:53:51.273Z,97474.47
2022-12-22T00:56:37.310Z,97495.53
2022-12-22T00:59:23.496Z,97483.72
2022-12-22T01:02:09.572Z,97491.16
2022-12-22T01:04:55.202Z,97483.34
2022-12-22T01:07:43.315Z,97492.44
2022-12-22T01:10:31.759Z,97494.25
2022-12-22T01:13:18.455Z,97487.38
2022-12-22T01:16:04.139Z,97484.78
2022-12-22T01:18:49.762Z,97494.63
2022-12-22T01:21:36.823Z,97489.19
2022-12-22T01:24:29.674Z,97490.19
2022-12-22T01:27:15.381Z,97497.84
2022-12-22T01:30:01.320Z,97489.69
2022-12-22T01:32:47.567Z,97493.06
2022-12-22T01:35:38.318Z,97496.34
2022-12-22T01:38:24.208Z,97500.88
2022-12-22T01:41:12.028Z,97496.66
2022-12-22T01:43:58.705Z,97491.59
2022-12-22T01:46:46.797Z,97487.25
2022-12-22T01:49:34.814Z,97481.31
2022-12-22T01:52:21.133Z,97481.44
2022-12-22T01:55:07.270Z,97472.09
2022-12-22T01:57:55.160Z,97463.47
2022-12-22T02:00:41.437Z,97446.84
2022-12-22T02:03:34.306Z,97430.66
2022-12-22T02:06:31.411Z,97445.66
2022-12-22T02:09:32.759Z,97458.50
2022-12-22T02:12:23.811Z,97452.03
2022-12-22T02:15:19.638Z,97459.41
2022-12-22T02:18:12.166Z,97459.41
2022-12-22T02:21:00.184Z,97455.72
2022-12-22T02:24:03.351Z,97454.34
2022-12-22T02:26:52.482Z,97459.81
2022-12-22T02:29:41.152Z,97450.00
2022-12-22T02:32:27.220Z,97447.22
2022-12-22T02:35:12.803Z,97453.03
2022-12-22T02:38:04.342Z,97446.09
2022-12-22T02:40:54.307Z,97443.31
2022-12-22T02:43:53.494Z,97438.00
2022-12-22T02:46:43.166Z,97446.34
2022-12-22T02:49:36.088Z,97434.31
2022-12-22T02:52:29.242Z,97431.84
2022-12-22T02:55:15.160Z,97432.09
2022-12-22T02:58:00.606Z,97432.84
2022-12-22T03:00:48.499Z,97434.94
2022-12-22T03:03:34.297Z,97430.31
2022-12-22T03:06:20.096Z,97426.94
2022-12-22T03:09:05.553Z,97424.78
2022-12-22T03:11:51.514Z,97428.06
2022-12-22T03:14:37.109Z,97424.13
2022-12-22T03:17:24.722Z,97416.88
2022-12-22T03:20:10.086Z,97427.59
2022-12-22T03:22:55.782Z,97425.06
2022-12-22T03:25:41.895Z,97434.97
2022-12-22T03:28:11.539Z,97429.28
2022-12-22T03:30:40.711Z,97432.03
2022-12-22T03:33:10.470Z,97426.34
2022-12-22T03:35:38.713Z,97425.59
2022-12-22T03:38:07.044Z,97432.22
2022-12-22T03:40:35.353Z,97428.34
2022-12-22T03:43:20.793Z,97435.75
2022-12-22T03:46:06.304Z,97436.00
2022-12-22T03:48:36.057Z,97436.19
2022-12-22T03:51:04.530Z,97432.06
2022-12-22T03:53:32.966Z,97438.97
2022-12-22T03:56:07.279Z,97433.91
2022-12-22T03:58:36.220Z,97445.19
2022-12-22T04:01:08.153Z,97427.56
2022-12-22T04:03:38.143Z,97424.41
2022-12-22T04:06:06.649Z,97423.91
2022-12-22T04:08:35.388Z,97416.25
2022-12-22T04:11:20.931Z,97414.59
2022-12-22T04:13:49.358Z,97410.16
2022-12-22T04:16:17.782Z,97421.25
2022-12-22T04:18:47.489Z,97405.34
2022-12-22T04:21:15.987Z,97414.13
2022-12-22T04:23:44.373Z,97412.56
2022-12-22T04:26:12.765Z,97409.09
2022-12-22T04:28:41.088Z,97404.41
2022-12-22T04:31:09.492Z,97396.91
2022-12-22T04:33:37.816Z,97390.47
2022-12-22T04:36:08.300Z,97394.19
2022-12-22T04:38:36.665Z,97389.22
2022-12-22T04:41:05.567Z,97390.91
2022-12-22T04:43:39.383Z,97394.25
2022-12-22T04:46:08.299Z,97393.97
2022-12-22T04:48:37.025Z,97393.22
2022-12-22T04:51:07.578Z,97392.09
2022-12-22T04:53:36.048Z,97396.19
2022-12-22T04:56:05.930Z,97393.41
2022-12-22T04:58:35.041Z,97385.41
2022-12-22T05:01:10.670Z,97386.28
2022-12-22T05:03:39.712Z,97383.47
2022-12-22T05:06:09.843Z,97383.16
2022-12-22T05:08:38.394Z,97379.31
2022-12-22T05:11:06.983Z,97375.53
2022-12-22T05:13:35.366Z,97371.31
2022-12-22T05:16:08.063Z,97376.00
2022-12-22T05:18:37.437Z,97377.53
2022-12-22T05:21:08.264Z,97380.81
2022-12-22T05:23:38.236Z,97379.00
2022-12-22T05:26:06.974Z,97380.56
2022-12-22T05:28:35.413Z,97376.97
2022-12-22T05:31:05.656Z,97382.59
2022-12-22T05:33:34.063Z,97380.81
2022-12-22T05:36:03.138Z,97379.25
2022-12-22T05:38:31.573Z,97378.16
2022-12-22T05:41:04.348Z,97384.09
2022-12-22T05:43:33.415Z,97392.63
2022-12-22T05:46:03.808Z,97405.22
2022-12-22T05:48:37.919Z,97400.16
2022-12-22T05:51:08.290Z,97397.16
2022-12-22T05:53:37.104Z,97405.53
2022-12-22T05:56:08.356Z,97408.09
2022-12-22T05:58:39.286Z,97422.44
2022-12-22T06:01:08.606Z,97420.56
2022-12-22T06:03:37.512Z,97424.75
2022-12-22T06:06:06.669Z,97416.44
2022-12-22T06:08:35.131Z,97410.44
2022-12-22T06:11:03.521Z,97415.50
2022-12-22T06:13:33.614Z,97418.19
2022-12-22T06:16:03.395Z,97411.44
2022-12-22T06:18:32.543Z,97413.97
2022-12-22T06:21:00.926Z,97408.84
2022-12-22T06:23:30.422Z,97409.69
2022-12-22T06:25:59.970Z,97414.59
2022-12-22T06:28:29.142Z,97408.69
2022-12-22T06:30:59.247Z,97410.59
2022-12-22T06:33:27.820Z,97406.91
2022-12-22T06:35:59.006Z,97413.63
2022-12-22T06:38:29.153Z,97403.38
2022-12-22T06:40:57.572Z,97409.91
2022-12-22T06:43:25.258Z,97408.91
2022-12-22T06:45:55.392Z,97408.06
2022-12-22T06:48:25.417Z,97401.31
2022-12-22T06:50:53.758Z,97400.16
2022-12-22T06:53:22.099Z,97407.03
2022-12-22T06:55:50.593Z,97396.13
2022-12-22T06:58:19.193Z,97400.38
2022-12-22T07:00:49.898Z,97398.06
2022-12-22T07:03:18.385Z,97388.69
2022-12-22T07:05:48.432Z,97387.78
2022-12-22T07:08:16.900Z,97388.38
2022-12-22T07:11:01.637Z,97396.16
2022-12-22T07:13:34.318Z,97388.66
2022-12-22T07:16:03.812Z,97388.56
2022-12-22T07:18:33.382Z,97396.38
2022-12-22T07:21:05.246Z,97394.50
2022-12-22T07:23:35.641Z,97403.34
2022-12-22T07:26:04.541Z,97392.56
2022-12-22T07:28:34.301Z,97394.19
2022-12-22T07:31:02.944Z,97403.34
2022-12-22T07:33:31.615Z,97396.38
2022-12-22T07:36:06.739Z,97403.59
2022-12-22T07:38:36.827Z,97405.47
2022-12-22T07:41:26.215Z,97404.34
2022-12-22T07:43:53.785Z,97393.91
2022-12-22T07:46:22.465Z,97397.44
2022-12-22T07:49:09.087Z,97386.34
2022-12-22T07:51:40.954Z,97377.88
2022-12-22T07:54:10.440Z,97374.94
2022-12-22T07:56:39.333Z,97371.34
2022-12-22T07:59:08.625Z,97375.03
2022-12-22T08:01:37.264Z,97373.13
2022-12-22T08:04:06.525Z,97372.19
2022-12-22T08:06:35.458Z,97375.81
2022-12-22T08:09:06.425Z,97364.19
2022-12-22T08:11:35.059Z,97361.03
2022-12-22T08:14:04.845Z,97349.38
2022-12-22T08:16:33.358Z,97349.06
2022-12-22T08:19:03.827Z,97349.06
2022-12-22T08:21:33.456Z,97348.31
2022-12-22T08:24:02.245Z,97345.28
2022-12-22T08:26:36.567Z,97349.31
2022-12-22T08:29:19.258Z,97352.00
2022-12-22T08:31:56.218Z,97348.78
2022-12-22T08:34:24.639Z,97344.84
2022-12-22T08:36:56.676Z,97354.41
2022-12-22T08:39:27.567Z,97344.38
2022-12-22T08:41:57.778Z,97350.50
2022-12-22T08:44:27.485Z,97366.59
2022-12-22T08:46:56.868Z,97356.72
2022-12-22T08:49:25.477Z,97360.97
2022-12-22T08:51:55.477Z,97357.31
2022-12-22T08:54:23.903Z,97349.69
2022-12-22T08:56:53.115Z,97351.69
2022-12-22T08:59:23.123Z,97347.44
2022-12-22T09:01:52.918Z,97355.47
2022-12-22T09:04:22.837Z,97349.41
2022-12-22T09:06:53.035Z,97351.31
2022-12-22T09:09:21.893Z,97348.16
2022-12-22T09:11:50.503Z,97351.03
2022-12-22T09:14:19.095Z,97349.78
2022-12-22T09:16:49.087Z,97352.75
2022-12-22T09:19:17.505Z,97345.16
2022-12-22T09:21:46.238Z,97331.84
2022-12-22T09:24:18.110Z,97315.50
2022-12-22T09:26:46.690Z,97305.34
2022-12-22T09:29:16.416Z,97289.78
2022-12-22T09:31:45.031Z,97291.34
2022-12-22T09:34:18.321Z,97285.28
2022-12-22T09:36:48.737Z,97268.34
2022-12-22T09:39:18.404Z,97251.81
2022-12-22T09:41:52.152Z,97243.47
2022-12-22T09:44:26.002Z,97240.66
2022-12-22T09:46:55.973Z,97242.91
2022-12-22T09:49:26.326Z,97241.59
2022-12-22T09:51:58.001Z,97248.03
2022-12-22T09:54:27.048Z,97243.38
2022-12-22T09:56:55.471Z,97246.59
2022-12-22T09:59:29.096Z,97238.97
2022-12-22T10:02:20.656Z,97224.97
2022-12-22T10:04:58.639Z,97227.63
2022-12-22T10:07:33.505Z,97217.78
2022-12-22T10:10:13.688Z,97216.28
2022-12-22T10:12:43.633Z,97202.22
2022-12-22T10:15:21.426Z,97205.66
2022-12-22T10:17:52.273Z,97215.13
2022-12-22T10:20:27.434Z,97204.09
2022-12-22T10:22:59.224Z,97199.88
2022-12-22T10:25:45.077Z,97197.41
2022-12-22T10:28:25.245Z,97181.91
2022-12-22T10:31:13.233Z,97178.38
2022-12-22T10:33:47.068Z,97177.47
2022-12-22T10:36:22.384Z,97159.66
2022-12-22T10:38:57.735Z,97163.09
2022-12-22T10:41:27.809Z,97157.28
2022-12-22T10:43:57.655Z,97147.31
2022-12-22T10:46:35.108Z,97143.94
2022-12-22T10:49:19.997Z,97142.63
2022-12-22T10:51:53.227Z,97147.75
2022-12-22T10:54:33.184Z,97145.78
2022-12-22T10:57:03.951Z,97150.94
2022-12-22T10:59:33.815Z,97152.78
2022-12-22T11:02:33.076Z,97158.06
2022-12-22T11:05:07.741Z,97157.19
2022-12-22T11:07:40.410Z,97143.38
2022-12-22T11:10:21.328Z,97120.72
2022-12-22T11:13:13.528Z,97111.06
2022-12-22T11:15:48.882Z,97092.44
2022-12-22T11:18:37.767Z,97084.81
2022-12-22T11:21:10.469Z,97090.06
2022-12-22T11:23:45.524Z,97104.28
2022-12-22T11:26:20.096Z,97098.50
2022-12-22T11:28:57.243Z,97101.97
2022-12-22T11:31:38.788Z,97094.25
2022-12-22T11:34:20.890Z,97084.75
2022-12-22T11:37:05.634Z,97089.25
2022-12-22T11:39:40.866Z,97089.44
2022-12-22T11:42:23.303Z,97085.38
2022-12-22T11:44:56.535Z,97079.16
2022-12-22T11:47:30.687Z,97071.41
2022-12-22T11:50:52.628Z,97069.66
2022-12-22T11:53:29.724Z,97070.69
2022-12-22T11:56:08.231Z,97080.22
2022-12-22T11:58:49.837Z,97085.38
2022-12-22T12:01:36.901Z,97079.16
2022-12-22T12:04:33.907Z,97067.94
2022-12-22T12:07:14.219Z,97073.97
2022-12-22T12:09:48.890Z,97067.97
2022-12-22T12:12:23.029Z,97065.47
2022-12-22T12:15:00.147Z,97045.81
2022-12-22T12:17:37.492Z,97034.72
2022-12-22T12:20:31.013Z,97037.31
2022-12-22T12:23:08.526Z,97045.00
2022-12-22T12:25:40.789Z,97038.16
2022-12-22T12:28:22.711Z,97043.31
2022-12-22T12:30:55.231Z,97042.47
2022-12-22T12:33:32.866Z,97039.84
2022-12-22T12:36:04.629Z,97041.53
2022-12-22T12:39:06.945Z,97046.63
2022-12-22T12:41:34.070Z,97056.16
2022-12-22T12:44:04.991Z,97064.66
2022-12-22T12:47:10.862Z,97068.09
2022-12-22T12:49:59.661Z,97074.06
2022-12-22T12:53:16.801Z,97083.47
2022-12-22T12:56:06.619Z,97085.09
2022-12-22T12:58:50.657Z,97088.41
2022-12-22T13:01:56.236Z,97088.31
2022-12-22T13:05:06.147Z,97090.78
2022-12-22T13:08:08.202Z,97090.56
2022-12-22T13:10:39.728Z,97096.44
2022-12-22T13:13:12.476Z,97106.34
2022-12-22T13:15:42.323Z,97106.16
2022-12-22T13:18:47.495Z,97105.28
2022-12-22T13:24:25.144Z,97093.53
2022-12-22T13:26:56.219Z,97088.19
2022-12-22T13:29:29.641Z,97081.34
2022-12-22T13:32:02.348Z,97088.97
2022-12-22T13:35:04.281Z,97099.25
2022-12-22T13:37:29.764Z,97116.13
2022-12-22T13:40:21.210Z,97115.25
2022-12-22T13:42:52.134Z,97110.28
2022-12-22T13:45:30.425Z,97121.34
2022-12-22T13:48:00.905Z,97130.81
2022-12-22T13:50:32.760Z,97124.84
2022-12-22T13:53:02.671Z,97109.69
2022-12-22T13:55:33.865Z,97106.22
2022-12-22T13:58:09.364Z,97112.91
2022-12-22T14:00:40.065Z,97132.09
2022-12-22T14:03:41.850Z,97139.59
2022-12-22T14:06:21.661Z,97137.09
2022-12-22T14:08:50.026Z,97131.06
2022-12-22T14:11:20.237Z,97132.50
2022-12-22T14:13:49.089Z,97134.31
2022-12-22T14:16:25.067Z,97136.19
2022-12-22T14:18:54.156Z,97136.00
2022-12-22T14:21:22.946Z,97136.72
2022-12-22T14:23:51.390Z,97153.25
2022-12-22T14:26:24.517Z,97152.50
2022-12-22T14:28:54.823Z,97134.59
2022-12-22T14:31:23.173Z,97123.91
2022-12-22T14:33:55.635Z,97140.66
2022-12-22T14:36:25.960Z,97165.41
2022-12-22T14:39:02.300Z,97171.09
2022-12-22T14:41:51.519Z,97180.31
2022-12-22T14:44:23.699Z,97177.84
2022-12-22T14:47:07.044Z,97173.22
2022-12-22T14:49:36.340Z,97175.53
2022-12-22T14:52:19.682Z,97169.53
2022-12-22T14:54:49.244Z,97166.50
2022-12-22T14:57:30.443Z,97170.69
2022-12-22T15:00:07.805Z,97173.19
2022-12-22T15:02:40.098Z,97168.91
2022-12-22T15:05:17.812Z,97172.78
2022-12-22T15:08:08.351Z,97183.69
2022-12-22T15:10:42.944Z,97179.31
2022-12-22T15:13:18.031Z,97182.75
2022-12-22T15:15:46.527Z,97199.81
2022-12-22T15:18:16.253Z,97216.06
2022-12-22T15:20:45.208Z,97224.88
2022-12-22T15:23:17.172Z,97235.94
2022-12-22T15:25:46.822Z,97236.63
2022-12-22T15:28:16.709Z,97226.06
2022-12-22T15:30:46.072Z,97231.81
2022-12-22T15:33:16.204Z,97235.03
2022-12-22T15:35:45.228Z,97234.97
2022-12-22T15:38:15.393Z,97249.41
2022-12-22T15:40:44.689Z,97248.44
2022-12-22T15:43:53.946Z,97241.53
2022-12-22T15:46:07.507Z,97239.59
2022-12-22T15:48:37.928Z,97233.59
2022-12-22T15:51:09.996Z,97238.72
2022-12-22T15:53:38.529Z,97252.19
2022-12-22T15:56:17.376Z,97259.75
2022-12-22T15:58:47.089Z,97253.59
2022-12-22T16:01:17.459Z,97259.41
2022-12-22T16:03:46.933Z,97258.31
2022-12-22T16:06:16.927Z,97286.16
2022-12-22T16:08:50.525Z,97289.16
2022-12-22T16:11:19.730Z,97297.34
2022-12-22T16:13:48.829Z,97307.31
2022-12-22T16:16:19.354Z,97313.09
2022-12-22T16:18:48.784Z,97314.91
2022-12-22T16:21:19.044Z,97333.63
2022-12-22T16:23:49.675Z,97330.91
2022-12-22T16:26:20.223Z,97335.72
2022-12-22T16:28:48.853Z,97335.84
2022-12-22T16:31:20.699Z,97355.94
2022-12-22T16:33:49.873Z,97361.03
2022-12-22T16:36:19.603Z,97353.38
2022-12-22T16:38:48.841Z,97353.19
2022-12-22T16:41:20.800Z,97355.75
2022-12-22T16:43:49.775Z,97353.13
2022-12-22T16:46:22.196Z,97333.56
2022-12-22T16:48:52.440Z,97331.78
2022-12-22T16:51:24.368Z,97340.16
2022-12-22T16:53:53.293Z,97329.88
2022-12-22T16:56:23.708Z,97326.19
2022-12-22T16:58:52.400Z,97314.88
2022-12-22T17:01:35.927Z,97307.97
2022-12-22T17:04:09.091Z,97315.44
2022-12-22T17:06:38.122Z,97301.50
2022-12-22T17:09:11.413Z,97284.28
2022-12-22T17:11:40.047Z,97273.91
2022-12-22T17:14:18.229Z,97259.13
2022-12-22T17:16:48.055Z,97269.09
2022-12-22T17:19:18.197Z,97287.38
2022-12-22T17:21:46.853Z,97288.69
2022-12-22T17:24:22.849Z,97292.03
2022-12-22T17:26:56.240Z,97301.50
2022-12-22T17:29:25.792Z,97310.16
2022-12-22T17:31:57.010Z,97291.25
2022-12-22T17:34:25.647Z,97276.53
2022-12-22T17:36:56.937Z,97269.84
2022-12-22T17:39:26.890Z,97270.50
2022-12-22T17:41:57.282Z,97284.81
2022-12-22T17:44:28.780Z,97294.28
2022-12-22T17:46:58.838Z,97304.28
2022-12-22T17:49:27.846Z,97309.22
2022-12-22T17:51:56.294Z,97309.59
2022-12-22T17:54:26.106Z,97312.44
2022-12-22T17:56:58.446Z,97323.31
2022-12-22T17:59:27.271Z,97324.53
2022-12-22T18:01:55.790Z,97328.06
2022-12-22T18:04:25.971Z,97328.66
2022-12-22T18:06:54.465Z,97330.88
2022-12-22T18:09:26.234Z,97327.06
2022-12-22T18:11:56.017Z,97328.75
2022-12-22T18:14:24.823Z,97323.91
2022-12-22T18:16:53.443Z,97326.22
2022-12-22T18:19:22.107Z,97333.72
2022-12-22T18:21:52.272Z,97343.13
2022-12-22T18:24:21.466Z,97348.25
2022-12-22T18:26:50.145Z,97351.00
2022-12-22T18:29:19.146Z,97350.31
2022-12-22T18:31:47.547Z,97348.31
2022-12-22T18:34:16.271Z,97354.66
2022-12-22T18:36:45.868Z,97363.03
2022-12-22T18:39:19.170Z,97362.66
2022-12-22T18:41:48.014Z,97356.53
2022-12-22T18:44:18.173Z,97357.19
2022-12-22T18:46:47.150Z,97359.66
2022-12-22T18:49:16.297Z,97363.97
2022-12-22T18:51:45.694Z,97358.97
2022-12-22T18:54:23.952Z,97363.53
2022-12-22T18:56:54.077Z,97354.41
2022-12-22T18:59:25.176Z,97347.47
2022-12-22T19:01:54.036Z,97349.38
2022-12-22T19:04:22.565Z,97341.28
2022-12-22T19:06:51.541Z,97331.31
2022-12-22T19:09:23.417Z,97339.50
2022-12-22T19:11:52.757Z,97332.25
2022-12-22T19:14:22.501Z,97346.38
2022-12-22T19:16:52.384Z,97348.66
2022-12-22T19:19:22.938Z,97349.22
2022-12-22T19:21:53.786Z,97341.88
2022-12-22T19:24:26.011Z,97334.88
2022-12-22T19:26:54.889Z,97339.66
2022-12-22T19:29:23.987Z,97335.28
2022-12-22T19:31:52.751Z,97337.78
2022-12-22T19:34:22.485Z,97333.53
2022-12-22T19:36:52.186Z,97328.38
2022-12-22T19:39:20.606Z,97347.53
2022-12-22T19:41:52.348Z,97338.88
2022-12-22T19:44:23.773Z,97337.94
2022-12-22T19:46:53.086Z,97339.91
2022-12-22T19:49:27.139Z,97337.06
2022-12-22T19:51:56.749Z,97329.78
2022-12-22T19:54:25.640Z,97336.78
2022-12-22T19:56:56.890Z,97326.16
2022-12-22T19:59:37.290Z,97328.25
2022-12-22T20:02:25.440Z,97324.44
2022-12-22T20:04:54.880Z,97315.28
2022-12-22T20:07:25.355Z,97317.44
2022-12-22T20:09:54.420Z,97305.31
2022-12-22T20:12:27.828Z,97310.16
2022-12-22T20:14:56.751Z,97301.66
2022-12-22T20:17:26.123Z,97300.97
2022-12-22T20:19:55.214Z,97300.91
2022-12-22T20:22:25.988Z,97314.97
2022-12-22T20:24:55.688Z,97318.34
2022-12-22T20:27:30.636Z,97312.44
2022-12-22T20:29:59.906Z,97308.00
2022-12-22T20:32:29.015Z,97305.81
2022-12-22T20:34:57.727Z,97313.19
2022-12-22T20:37:26.738Z,97316.50
2022-12-22T20:39:56.394Z,97312.81
2022-12-22T20:42:27.565Z,97301.44
2022-12-22T20:45:03.977Z,97311.63
2022-12-22T20:47:34.301Z,97309.88
2022-12-22T20:50:03.093Z,97308.78
2022-12-22T20:52:32.681Z,97316.72
2022-12-22T20:55:03.100Z,97307.09
2022-12-22T20:57:32.835Z,97307.69
2022-12-22T21:00:01.665Z,97309.66
2022-12-22T21:02:30.724Z,97312.53
2022-12-22T21:04:59.714Z,97311.91
2022-12-22T21:07:28.296Z,97316.56
2022-12-22T21:09:57.179Z,97320.38
2022-12-22T21:12:25.893Z,97325.16
2022-12-22T21:14:55.846Z,97319.91
2022-12-22T21:17:25.716Z,97323.78
2022-12-22T21:19:56.427Z,97318.03
2022-12-22T21:22:24.811Z,97316.31
2022-12-22T21:24:53.139Z,97323.13
2022-12-22T21:27:22.114Z,97319.69
2022-12-22T21:29:50.795Z,97294.03
2022-12-22T21:32:21.911Z,97303.44
2022-12-22T21:34:51.359Z,97314.03
2022-12-22T21:37:20.471Z,97310.16
2022-12-22T21:39:48.817Z,97304.00
2022-12-22T21:42:17.972Z,97306.94
2022-12-22T21:44:46.587Z,97299.22
2022-12-22T21:47:16.171Z,97299.53
2022-12-22T21:49:45.970Z,97298.09
2022-12-22T21:52:14.254Z,97287.47
2022-12-22T21:54:42.646Z,97280.47
2022-12-22T21:57:15.933Z,97282.31
2022-12-22T21:59:44.241Z,97293.13
2022-12-22T22:02:16.532Z,97292.47
2022-12-22T22:04:54.612Z,97286.47
2022-12-22T22:07:24.008Z,97277.00
2022-12-22T22:09:52.608Z,97271.78
2022-12-22T22:12:38.082Z,97273.84
2022-12-22T22:15:08.294Z,97281.63
2022-12-22T22:17:36.706Z,97279.31
2022-12-22T22:20:09.966Z,97271.38
2022-12-22T22:22:38.300Z,97265.50
2022-12-22T22:25:07.841Z,97274.75
2022-12-22T22:27:36.209Z,97273.72
2022-12-22T22:30:05.335Z,97277.13
2022-12-22T22:32:33.926Z,97270.28
2022-12-22T22:35:02.211Z,97264.25
2022-12-22T22:37:33.122Z,97263.25
2022-12-22T22:40:01.574Z,97259.81
2022-12-22T22:42:29.932Z,97256.28
2022-12-22T22:44:58.422Z,97256.84
2022-12-22T22:47:26.842Z,97255.09
2022-12-22T22:49:55.238Z,97242.25
2022-12-22T22:52:23.710Z,97248.03
2022-12-22T22:54:58.153Z,97244.81
2022-12-22T22:57:26.492Z,97245.94
2022-12-22T22:59:55.956Z,97245.34
2022-12-22T23:02:24.677Z,97236.31
2022-12-22T23:04:53.138Z,97232.72
2022-12-22T23:07:21.629Z,97225.63
2022-12-22T23:09:50.107Z,97216.19
2022-12-22T23:12:19.979Z,97214.25
2022-12-22T23:14:48.456Z,97207.28
2022-12-22T23:17:16.777Z,97204.56
2022-12-22T23:19:47.069Z,97205.22
2022-12-22T23:22:15.404Z,97209.38
2022-12-22T23:24:43.703Z,97201.59
2022-12-22T23:27:12.855Z,97199.03
2022-12-22T23:29:43.108Z,97204.34
2022-12-22T23:32:11.469Z,97203.13
2022-12-22T23:34:39.861Z,97210.81
2022-12-22T23:37:18.676Z,97207.19
2022-12-22T23:39:47.803Z,97205.72
2022-12-22T23:42:16.254Z,97192.84
2022-12-22T23:44:46.064Z,97203.69
2022-12-22T23:47:14.532Z,97208.47
2022-12-22T23:49:42.941Z,97204.94
2022-12-22T23:52:11.293Z,97218.16
2022-12-22T23:54:41.474Z,97211.97
2022-12-22T23:57:10.096Z,97203.69
2022-12-22T23:59:38.554Z,97183.38
